createdAt,value
2023-05-05T00:02:03.911Z,9.16
2023-05-05T00:07:06.646Z,9.15
2023-05-05T00:12:09.288Z,9.12
2023-05-05T00:17:12.028Z,9.15
2023-05-05T00:22:14.966Z,9.18
2023-05-05T00:27:17.480Z,9.15
2023-05-05T00:32:19.969Z,9.12
2023-05-05T00:37:22.542Z,9.07
2023-05-05T00:42:26.646Z,9.00
2023-05-05T00:47:29.370Z,8.93
2023-05-05T00:52:32.035Z,8.88
2023-05-05T00:57:35.781Z,8.82
2023-05-05T01:02:39.270Z,8.77
2023-05-05T01:07:46.921Z,8.75
2023-05-05T01:13:11.725Z,8.71
2023-05-05T01:18:35.981Z,8.70
2023-05-05T01:24:11.529Z,8.67
2023-05-05T01:29:46.530Z,8.62
2023-05-05T01:35:21.290Z,8.57
2023-05-05T01:40:27.871Z,8.59
2023-05-05T01:45:35.792Z,8.59
2023-05-05T01:50:41.761Z,8.61
2023-05-05T01:55:46.768Z,8.62
2023-05-05T02:00:51.719Z,8.62
2023-05-05T02:05:58.126Z,8.56
2023-05-05T02:11:01.343Z,8.48
2023-05-05T02:16:06.119Z,8.42
2023-05-05T02:21:09.054Z,8.34
2023-05-05T02:26:14.612Z,8.29
2023-05-05T02:31:20.695Z,8.29
2023-05-05T02:36:28.481Z,8.25
2023-05-05T02:41:33.216Z,8.23
2023-05-05T02:46:37.862Z,8.17
2023-05-05T02:51:40.677Z,8.13
2023-05-05T02:56:48.756Z,8.05
2023-05-05T03:01:54.071Z,7.95
2023-05-05T03:06:59.305Z,7.87
2023-05-05T03:12:05.564Z,7.82
2023-05-05T03:17:11.934Z,7.77
2023-05-05T03:22:14.771Z,7.74
2023-05-05T03:27:17.565Z,7.70
2023-05-05T03:32:20.411Z,7.68
2023-05-05T03:37:22.894Z,7.70
2023-05-05T03:42:25.425Z,7.72
2023-05-05T03:47:27.954Z,7.72
2023-05-05T03:52:31.094Z,7.71
2023-05-05T03:57:34.327Z,7.68
2023-05-05T04:02:36.938Z,7.65
2023-05-05T04:07:39.638Z,7.65
2023-05-05T04:12:42.320Z,7.64
2023-05-05T04:17:45.106Z,7.63
2023-05-05T04:22:48.123Z,7.65
2023-05-05T04:27:50.990Z,7.66
2023-05-05T04:32:53.712Z,7.71
2023-05-05T04:37:56.381Z,7.76
2023-05-05T04:42:58.945Z,7.80
2023-05-05T04:48:01.938Z,7.88
2023-05-05T04:53:04.502Z,7.96
2023-05-05T04:58:07.082Z,8.06
2023-05-05T05:03:10.701Z,8.15
2023-05-05T05:08:16.011Z,8.36
2023-05-05T05:13:18.693Z,8.75
2023-05-05T05:18:21.357Z,9.24
2023-05-05T05:23:23.952Z,9.86
2023-05-05T05:28:26.682Z,11.53
2023-05-05T05:33:29.234Z,13.18
2023-05-05T05:38:31.797Z,14.03
2023-05-05T05:43:34.379Z,14.86
2023-05-05T05:48:36.991Z,15.54
2023-05-05T05:53:39.612Z,15.67
2023-05-05T05:58:42.457Z,15.40
2023-05-05T06:03:45.541Z,15.55
2023-05-05T06:08:48.298Z,15.66
2023-05-05T06:13:50.971Z,16.24
2023-05-05T06:18:53.644Z,17.83
2023-05-05T06:23:56.214Z,18.44
2023-05-05T06:28:58.750Z,19.02
2023-05-05T06:34:01.274Z,21.61
2023-05-05T06:39:04.081Z,24.31
2023-05-05T06:44:06.679Z,26.16
2023-05-05T06:49:09.619Z,27.20
2023-05-05T06:54:12.137Z,27.92
2023-05-05T06:59:15.621Z,28.61
2023-05-05T07:04:18.562Z,28.97
2023-05-05T07:09:21.527Z,28.86
2023-05-05T07:14:24.571Z,28.90
2023-05-05T07:19:27.472Z,29.11
2023-05-05T07:24:30.073Z,29.12
2023-05-05T07:29:32.647Z,28.90
2023-05-05T07:34:37.804Z,28.52
2023-05-05T07:39:40.520Z,28.07
2023-05-05T07:44:43.092Z,27.50
2023-05-05T07:49:45.685Z,26.61
2023-05-05T07:54:48.604Z,26.01
2023-05-05T07:59:51.196Z,25.53
2023-05-05T08:04:53.701Z,24.88
2023-05-05T08:09:57.630Z,24.53
2023-05-05T08:15:00.667Z,23.89
2023-05-05T08:20:03.364Z,23.39
2023-05-05T08:25:07.142Z,22.73
2023-05-05T08:30:10.795Z,21.95
2023-05-05T08:35:13.645Z,21.21
2023-05-05T08:40:17.025Z,20.49
2023-05-05T08:45:19.691Z,20.14
2023-05-05T08:50:26.332Z,19.97
2023-05-05T09:20:07.691Z,19.47
2023-05-05T09:25:12.918Z,19.25
2023-05-05T09:30:18.057Z,18.76
2023-05-05T09:35:22.310Z,18.16
2023-05-05T09:40:25.050Z,17.92
2023-05-05T09:45:28.117Z,17.56
2023-05-05T09:50:41.836Z,16.88
2023-05-05T09:56:00.841Z,16.50
2023-05-05T10:01:03.474Z,16.35
2023-05-05T10:06:07.705Z,16.36
2023-05-05T10:11:11.179Z,16.58
2023-05-05T10:16:14.479Z,16.59
2023-05-05T10:21:21.319Z,16.53
2023-05-05T10:26:27.550Z,16.39
2023-05-05T10:31:46.283Z,16.28
2023-05-05T10:36:49.612Z,16.54
2023-05-05T10:41:52.846Z,16.92
2023-05-05T10:46:55.968Z,17.01
2023-05-05T10:52:13.861Z,16.93
2023-05-05T10:57:22.304Z,16.50
2023-05-05T11:02:29.915Z,16.21
2023-05-05T11:07:34.294Z,16.04
2023-05-05T11:12:57.678Z,16.19
2023-05-05T11:18:07.495Z,16.55
2023-05-05T11:23:10.956Z,16.90
2023-05-05T11:28:19.096Z,16.63
2023-05-05T11:33:31.867Z,16.31
2023-05-05T11:38:56.360Z,16.41
2023-05-05T11:44:16.876Z,16.55
2023-05-05T11:49:37.115Z,16.60
2023-05-05T11:54:47.564Z,16.68
2023-05-05T11:59:55.921Z,16.66
2023-05-05T12:04:59.820Z,16.63
2023-05-05T12:10:02.631Z,16.72
2023-05-05T12:15:06.484Z,16.87
2023-05-05T12:20:10.453Z,16.89
2023-05-05T12:25:13.367Z,17.08
2023-05-05T12:30:17.907Z,17.34
2023-05-05T12:35:21.831Z,17.39
2023-05-05T12:40:47.558Z,17.04
2023-05-05T12:46:12.092Z,16.57
2023-05-05T12:51:20.418Z,16.49
2023-05-05T12:56:41.048Z,16.50
2023-05-05T13:01:53.701Z,16.59
2023-05-05T13:07:14.410Z,16.65
2023-05-05T13:12:20.757Z,16.74
2023-05-05T13:17:24.090Z,16.79
2023-05-05T13:22:26.632Z,16.71
2023-05-05T13:27:29.455Z,16.51
2023-05-05T13:32:32.715Z,16.36
2023-05-05T13:37:35.715Z,16.43
2023-05-05T13:42:38.229Z,16.76
2023-05-05T13:47:41.862Z,17.01
2023-05-05T13:52:44.846Z,17.18
2023-05-05T13:57:47.384Z,17.13
2023-05-05T14:02:49.964Z,17.05
2023-05-05T14:07:54.135Z,17.04
2023-05-05T14:12:57.496Z,17.10
2023-05-05T14:18:00.239Z,17.12
2023-05-05T14:23:02.891Z,17.06
2023-05-05T14:28:05.609Z,16.94
2023-05-05T14:33:08.445Z,16.77
2023-05-05T14:38:11.267Z,16.54
2023-05-05T14:43:13.886Z,16.40
2023-05-05T14:48:16.575Z,16.05
2023-05-05T14:53:19.292Z,15.83
2023-05-05T14:58:24.431Z,15.81
2023-05-05T15:03:27.130Z,15.97
2023-05-05T15:08:29.748Z,16.20
2023-05-05T15:13:32.263Z,16.33
2023-05-05T15:18:34.840Z,16.22
2023-05-05T15:23:37.372Z,16.13
2023-05-05T15:28:40.261Z,16.22
2023-05-05T15:33:44.684Z,16.28
2023-05-05T15:38:47.220Z,16.39
2023-05-05T15:43:49.702Z,16.38
2023-05-05T15:48:52.195Z,16.18
2023-05-05T15:53:54.768Z,16.03
2023-05-05T15:58:57.316Z,15.88
2023-05-05T16:04:01.242Z,15.52
2023-05-05T16:09:04.250Z,15.21
2023-05-05T16:14:06.840Z,15.01
2023-05-05T16:19:09.422Z,14.83
2023-05-05T16:24:16.437Z,14.60
2023-05-05T16:29:19.435Z,14.45
2023-05-05T16:34:22.263Z,14.61
2023-05-05T16:39:26.095Z,14.64
2023-05-05T16:44:28.674Z,14.40
2023-05-05T16:49:31.325Z,14.17
2023-05-05T16:54:34.062Z,13.93
2023-05-05T16:59:36.718Z,13.58
2023-05-05T17:04:39.389Z,13.23
2023-05-05T17:09:41.970Z,12.90
2023-05-05T17:14:45.953Z,12.69
2023-05-05T17:19:48.503Z,12.49
2023-05-05T17:24:51.003Z,12.32
2023-05-05T17:29:54.552Z,12.14
2023-05-05T17:34:57.734Z,12.01
2023-05-05T17:40:00.376Z,11.85
2023-05-05T17:45:03.284Z,11.71
2023-05-05T17:50:06.483Z,11.58
2023-05-05T17:55:09.770Z,11.43
2023-05-05T18:00:13.756Z,11.27
2023-05-05T18:05:16.496Z,11.10
2023-05-05T18:10:19.664Z,10.93
2023-05-05T18:15:22.423Z,10.77
2023-05-05T18:20:25.109Z,10.61
2023-05-05T18:25:27.753Z,10.46
2023-05-05T18:30:30.380Z,10.32
2023-05-05T18:35:34.748Z,10.18
2023-05-05T18:40:37.414Z,10.06
2023-05-05T18:45:40.114Z,9.92
2023-05-05T18:50:42.956Z,9.79
2023-05-05T18:55:47.075Z,9.64
2023-05-05T19:00:50.814Z,9.50
2023-05-05T19:05:55.767Z,9.36
2023-05-05T19:10:58.374Z,9.21
2023-05-05T19:16:01.341Z,9.07
2023-05-05T19:21:03.982Z,8.91
2023-05-05T19:26:06.946Z,8.78
2023-05-05T19:31:09.518Z,8.67
2023-05-05T19:36:12.637Z,8.55
2023-05-05T19:41:15.340Z,8.42
2023-05-05T19:46:19.230Z,8.30
2023-05-05T19:51:21.955Z,8.19
2023-05-05T19:56:24.593Z,8.09
2023-05-05T20:01:28.954Z,7.99
2023-05-05T20:06:32.601Z,7.88
2023-05-05T20:11:35.694Z,7.78
2023-05-05T20:16:39.053Z,7.69
2023-05-05T20:21:41.813Z,7.61
2023-05-05T20:26:45.440Z,7.52
2023-05-05T20:31:48.665Z,7.43
2023-05-05T20:36:52.560Z,7.34
2023-05-05T20:41:55.154Z,7.27
2023-05-05T20:46:57.790Z,7.20
2023-05-05T20:52:00.513Z,7.13
2023-05-05T20:57:03.521Z,7.05
2023-05-05T21:02:06.366Z,6.95
2023-05-05T21:07:08.979Z,6.84
2023-05-05T21:12:11.517Z,6.73
2023-05-05T21:17:14.138Z,6.63
2023-05-05T21:22:16.730Z,6.56
2023-05-05T21:27:21.007Z,6.46
2023-05-05T21:32:23.747Z,6.37
2023-05-05T21:37:29.049Z,6.28
2023-05-05T21:42:32.018Z,6.22
2023-05-05T21:47:34.660Z,6.14
2023-05-05T21:52:37.316Z,6.08
2023-05-05T21:57:39.861Z,6.01
2023-05-05T22:02:45.604Z,5.95
2023-05-05T22:07:48.226Z,5.90
2023-05-05T22:12:51.006Z,5.85
2023-05-05T22:17:53.727Z,5.78
2023-05-05T22:22:56.567Z,5.72
2023-05-05T22:28:00.496Z,5.66
2023-05-05T22:33:03.632Z,5.59
2023-05-05T22:38:06.996Z,5.53
2023-05-05T22:43:09.564Z,5.46
2023-05-05T22:48:12.112Z,5.40
2023-05-05T22:53:14.642Z,5.32
2023-05-05T22:58:17.164Z,5.24
2023-05-05T23:03:19.726Z,5.18
2023-05-05T23:08:24.005Z,5.11
2023-05-05T23:13:26.574Z,5.04
2023-05-05T23:18:29.105Z,4.98
2023-05-05T23:23:33.820Z,4.92
2023-05-05T23:28:36.407Z,4.88
2023-05-05T23:33:38.948Z,4.83
2023-05-05T23:38:41.878Z,4.78
2023-05-05T23:43:44.701Z,4.72
2023-05-05T23:48:47.250Z,4.67
2023-05-05T23:53:49.787Z,4.62
2023-05-05T23:58:53.020Z,4.55
